sensor_id;sensor_type;location;lat;lon;timestamp;temperature;humidity
23609;DHT22;11982;50.810;4.442;2023-01-28T00:01:59;4.60;99.90
23609;DHT22;11982;50.810;4.442;2023-01-28T00:04:25;4.60;99.90
23609;DHT22;11982;50.810;4.442;2023-01-28T00:06:51;4.60;99.90
23609;DHT22;11982;50.810;4.442;2023-01-28T00:09:18;4.50;99.90
23609;DHT22;11982;50.810;4.442;2023-01-28T00:11:44;4.60;99.90
23609;DHT22;11982;50.810;4.442;2023-01-28T00:14:12;4.60;99.90
23609;DHT22;11982;50.810;4.442;2023-01-28T00:16:38;4.60;99.90
23609;DHT22;11982;50.810;4.442;2023-01-28T00:19:04;4.50;99.90
23609;DHT22;11982;50.810;4.442;2023-01-28T00:21:30;4.40;99.90
23609;DHT22;11982;50.810;4.442;2023-01-28T00:23:56;4.40;99.90
23609;DHT22;11982;50.810;4.442;2023-01-28T00:26:22;4.50;99.90
23609;DHT22;11982;50.810;4.442;2023-01-28T00:28:48;4.60;99.90
23609;DHT22;11982;50.810;4.442;2023-01-28T00:31:17;4.40;99.90
23609;DHT22;11982;50.810;4.442;2023-01-28T00:33:44;4.40;99.90
23609;DHT22;11982;50.810;4.442;2023-01-28T00:36:11;4.40;99.90
23609;DHT22;11982;50.810;4.442;2023-01-28T00:38:37;4.40;99.90
23609;DHT22;11982;50.810;4.442;2023-01-28T00:41:15;4.40;99.90
23609;DHT22;11982;50.810;4.442;2023-01-28T00:43:41;4.40;99.90
23609;DHT22;11982;50.810;4.442;2023-01-28T00:46:08;4.50;99.90
23609;DHT22;11982;50.810;4.442;2023-01-28T00:48:35;4.50;99.90
23609;DHT22;11982;50.810;4.442;2023-01-28T00:51:02;4.60;99.90
23609;DHT22;11982;50.810;4.442;2023-01-28T00:53:28;4.60;99.90
23609;DHT22;11982;50.810;4.442;2023-01-28T00:55:53;4.50;99.90
23609;DHT22;11982;50.810;4.442;2023-01-28T00:58:19;4.40;99.90
23609;DHT22;11982;50.810;4.442;2023-01-28T01:00:45;4.40;99.90
23609;DHT22;11982;50.810;4.442;2023-01-28T01:03:11;4.60;99.90
23609;DHT22;11982;50.810;4.442;2023-01-28T01:05:37;4.40;99.90
23609;DHT22;11982;50.810;4.442;2023-01-28T01:08:03;4.50;99.90
23609;DHT22;11982;50.810;4.442;2023-01-28T01:10:29;4.50;99.90
23609;DHT22;11982;50.810;4.442;2023-01-28T01:12:54;4.40;99.90
23609;DHT22;11982;50.810;4.442;2023-01-28T01:15:22;4.30;99.90
23609;DHT22;11982;50.810;4.442;2023-01-28T01:17:49;4.40;99.90
23609;DHT22;11982;50.810;4.442;2023-01-28T01:20:27;4.40;99.90
23609;DHT22;11982;50.810;4.442;2023-01-28T01:22:53;4.30;99.90
23609;DHT22;11982;50.810;4.442;2023-01-28T01:25:21;4.30;99.90
23609;DHT22;11982;50.810;4.442;2023-01-28T01:27:48;4.20;99.90
23609;DHT22;11982;50.810;4.442;2023-01-28T01:30:15;4.20;99.90
23609;DHT22;11982;50.810;4.442;2023-01-28T01:32:41;4.20;99.90
23609;DHT22;11982;50.810;4.442;2023-01-28T01:35:08;4.30;99.90
23609;DHT22;11982;50.810;4.442;2023-01-28T01:37:35;4.40;99.90
23609;DHT22;11982;50.810;4.442;2023-01-28T01:40:01;4.40;99.90
23609;DHT22;11982;50.810;4.442;2023-01-28T01:42:30;4.30;99.90
23609;DHT22;11982;50.810;4.442;2023-01-28T01:50:38;4.30;99.90
23609;DHT22;11982;50.810;4.442;2023-01-28T01:53:15;4.40;99.90
23609;DHT22;11982;50.810;4.442;2023-01-28T01:55:46;4.50;99.90
23609;DHT22;11982;50.810;4.442;2023-01-28T01:58:15;4.60;99.90
23609;DHT22;11982;50.810;4.442;2023-01-28T02:00:43;4.40;99.90
23609;DHT22;11982;50.810;4.442;2023-01-28T02:03:10;4.30;99.90
23609;DHT22;11982;50.810;4.442;2023-01-28T02:05:36;4.20;99.90
23609;DHT22;11982;50.810;4.442;2023-01-28T02:08:02;4.20;99.90
23609;DHT22;11982;50.810;4.442;2023-01-28T02:10:57;4.30;99.90
23609;DHT22;11982;50.810;4.442;2023-01-28T02:13:28;4.20;99.90
23609;DHT22;11982;50.810;4.442;2023-01-28T02:15:54;4.30;99.90
23609;DHT22;11982;50.810;4.442;2023-01-28T02:18:22;4.30;99.90
23609;DHT22;11982;50.810;4.442;2023-01-28T02:23:49;4.40;99.90
23609;DHT22;11982;50.810;4.442;2023-01-28T02:31:54;4.40;99.90
23609;DHT22;11982;50.810;4.442;2023-01-28T02:34:39;4.30;99.90
23609;DHT22;11982;50.810;4.442;2023-01-28T02:37:21;4.30;99.90
23609;DHT22;11982;50.810;4.442;2023-01-28T02:40:11;4.40;99.90
23609;DHT22;11982;50.810;4.442;2023-01-28T02:42:39;4.30;99.90
23609;DHT22;11982;50.810;4.442;2023-01-28T02:47:48;4.40;99.90
23609;DHT22;11982;50.810;4.442;2023-01-28T02:50:37;4.40;99.90
23609;DHT22;11982;50.810;4.442;2023-01-28T03:02:50;4.30;99.90
23609;DHT22;11982;50.810;4.442;2023-01-28T03:05:30;4.20;99.90
23609;DHT22;11982;50.810;4.442;2023-01-28T03:07:58;4.10;99.90
23609;DHT22;11982;50.810;4.442;2023-01-28T03:10:25;4.00;99.90
23609;DHT22;11982;50.810;4.442;2023-01-28T03:12:54;3.90;99.90
23609;DHT22;11982;50.810;4.442;2023-01-28T03:15:45;4.00;99.90
23609;DHT22;11982;50.810;4.442;2023-01-28T03:18:38;3.90;99.90
23609;DHT22;11982;50.810;4.442;2023-01-28T03:21:34;3.80;99.90
23609;DHT22;11982;50.810;4.442;2023-01-28T03:27:33;3.80;99.90
23609;DHT22;11982;50.810;4.442;2023-01-28T03:30:26;3.80;99.90
23609;DHT22;11982;50.810;4.442;2023-01-28T03:33:13;3.90;99.90
23609;DHT22;11982;50.810;4.442;2023-01-28T03:35:58;3.80;99.90
23609;DHT22;11982;50.810;4.442;2023-01-28T03:38:43;3.90;99.90
23609;DHT22;11982;50.810;4.442;2023-01-28T03:41:19;3.80;99.90
23609;DHT22;11982;50.810;4.442;2023-01-28T03:43:46;3.80;99.90
23609;DHT22;11982;50.810;4.442;2023-01-28T03:46:12;3.70;99.90
23609;DHT22;11982;50.810;4.442;2023-01-28T03:48:38;3.80;99.90
23609;DHT22;11982;50.810;4.442;2023-01-28T03:51:03;3.80;99.90
23609;DHT22;11982;50.810;4.442;2023-01-28T03:53:29;3.80;99.90
23609;DHT22;11982;50.810;4.442;2023-01-28T03:55:55;3.80;99.90
23609;DHT22;11982;50.810;4.442;2023-01-28T03:58:22;3.80;99.90
23609;DHT22;11982;50.810;4.442;2023-01-28T04:00:51;3.80;99.90
23609;DHT22;11982;50.810;4.442;2023-01-28T04:03:18;3.80;99.90
23609;DHT22;11982;50.810;4.442;2023-01-28T04:05:56;3.70;99.90
23609;DHT22;11982;50.810;4.442;2023-01-28T04:08:22;3.80;99.90
23609;DHT22;11982;50.810;4.442;2023-01-28T04:10:49;3.80;99.90
23609;DHT22;11982;50.810;4.442;2023-01-28T04:13:15;3.90;99.90
23609;DHT22;11982;50.810;4.442;2023-01-28T04:15:42;3.90;99.90
23609;DHT22;11982;50.810;4.442;2023-01-28T04:18:08;3.90;99.90
23609;DHT22;11982;50.810;4.442;2023-01-28T04:20:34;3.80;99.90
23609;DHT22;11982;50.810;4.442;2023-01-28T04:23:00;3.80;99.90
23609;DHT22;11982;50.810;4.442;2023-01-28T04:25:26;3.70;99.90
23609;DHT22;11982;50.810;4.442;2023-01-28T04:27:52;3.70;99.90
23609;DHT22;11982;50.810;4.442;2023-01-28T04:30:18;3.70;99.90
23609;DHT22;11982;50.810;4.442;2023-01-28T04:32:45;3.70;99.90
23609;DHT22;11982;50.810;4.442;2023-01-28T04:35:11;3.70;99.90
23609;DHT22;11982;50.810;4.442;2023-01-28T04:37:39;3.60;99.90
23609;DHT22;11982;50.810;4.442;2023-01-28T04:40:05;3.50;99.90
23609;DHT22;11982;50.810;4.442;2023-01-28T04:42:31;3.50;99.90
23609;DHT22;11982;50.810;4.442;2023-01-28T04:44:57;3.40;99.90
23609;DHT22;11982;50.810;4.442;2023-01-28T04:47:22;3.50;99.90
23609;DHT22;11982;50.810;4.442;2023-01-28T04:49:48;3.50;99.90
23609;DHT22;11982;50.810;4.442;2023-01-28T04:52:13;3.50;99.90
23609;DHT22;11982;50.810;4.442;2023-01-28T04:54:39;3.50;99.90
23609;DHT22;11982;50.810;4.442;2023-01-28T04:57:05;3.50;99.90
23609;DHT22;11982;50.810;4.442;2023-01-28T04:59:30;3.60;99.90
23609;DHT22;11982;50.810;4.442;2023-01-28T05:01:56;3.60;99.90
23609;DHT22;11982;50.810;4.442;2023-01-28T05:04:22;3.60;99.90
23609;DHT22;11982;50.810;4.442;2023-01-28T05:06:47;3.60;99.90
23609;DHT22;11982;50.810;4.442;2023-01-28T05:09:13;3.70;99.90
23609;DHT22;11982;50.810;4.442;2023-01-28T05:11:39;3.70;99.90
23609;DHT22;11982;50.810;4.442;2023-01-28T05:14:05;3.60;99.90
23609;DHT22;11982;50.810;4.442;2023-01-28T05:16:30;3.60;99.90
23609;DHT22;11982;50.810;4.442;2023-01-28T05:18:56;3.60;99.90
23609;DHT22;11982;50.810;4.442;2023-01-28T05:21:22;3.60;99.90
23609;DHT22;11982;50.810;4.442;2023-01-28T05:23:48;3.70;99.90
23609;DHT22;11982;50.810;4.442;2023-01-28T05:26:13;3.70;99.90
23609;DHT22;11982;50.810;4.442;2023-01-28T05:28:39;3.70;99.90
23609;DHT22;11982;50.810;4.442;2023-01-28T05:31:05;3.70;99.90
23609;DHT22;11982;50.810;4.442;2023-01-28T05:33:31;3.60;99.90
23609;DHT22;11982;50.810;4.442;2023-01-28T05:35:57;3.60;99.90
23609;DHT22;11982;50.810;4.442;2023-01-28T05:38:23;3.50;99.90
23609;DHT22;11982;50.810;4.442;2023-01-28T05:40:49;3.40;99.90
23609;DHT22;11982;50.810;4.442;2023-01-28T05:43:15;3.40;99.90
23609;DHT22;11982;50.810;4.442;2023-01-28T05:45:41;3.40;99.90
23609;DHT22;11982;50.810;4.442;2023-01-28T05:48:07;3.40;99.90
23609;DHT22;11982;50.810;4.442;2023-01-28T05:50:32;3.40;99.90
23609;DHT22;11982;50.810;4.442;2023-01-28T05:52:58;3.40;99.90
23609;DHT22;11982;50.810;4.442;2023-01-28T05:55:24;3.40;99.90
23609;DHT22;11982;50.810;4.442;2023-01-28T05:57:51;3.40;99.90
23609;DHT22;11982;50.810;4.442;2023-01-28T06:00:17;3.50;99.90
23609;DHT22;11982;50.810;4.442;2023-01-28T06:02:42;3.50;99.90
23609;DHT22;11982;50.810;4.442;2023-01-28T06:05:08;3.40;99.90
23609;DHT22;11982;50.810;4.442;2023-01-28T06:07:34;3.50;99.90
23609;DHT22;11982;50.810;4.442;2023-01-28T06:10:00;3.50;99.90
23609;DHT22;11982;50.810;4.442;2023-01-28T06:12:26;3.40;99.90
23609;DHT22;11982;50.810;4.442;2023-01-28T06:14:51;3.30;99.90
23609;DHT22;11982;50.810;4.442;2023-01-28T06:17:17;3.30;99.90
23609;DHT22;11982;50.810;4.442;2023-01-28T06:19:43;3.40;99.90
23609;DHT22;11982;50.810;4.442;2023-01-28T06:22:09;3.50;99.90
23609;DHT22;11982;50.810;4.442;2023-01-28T06:24:35;3.50;99.90
23609;DHT22;11982;50.810;4.442;2023-01-28T06:27:00;3.40;99.90
23609;DHT22;11982;50.810;4.442;2023-01-28T06:29:26;3.40;99.90
23609;DHT22;11982;50.810;4.442;2023-01-28T06:31:52;3.40;99.90
23609;DHT22;11982;50.810;4.442;2023-01-28T06:34:17;3.40;99.90
23609;DHT22;11982;50.810;4.442;2023-01-28T06:36:43;3.50;99.90
23609;DHT22;11982;50.810;4.442;2023-01-28T06:39:09;3.60;99.90
23609;DHT22;11982;50.810;4.442;2023-01-28T06:41:35;3.70;99.90
23609;DHT22;11982;50.810;4.442;2023-01-28T06:44:00;3.80;99.90
23609;DHT22;11982;50.810;4.442;2023-01-28T06:46:26;3.80;99.90
23609;DHT22;11982;50.810;4.442;2023-01-28T06:48:52;3.90;99.90
23609;DHT22;11982;50.810;4.442;2023-01-28T06:51:18;3.80;99.90
23609;DHT22;11982;50.810;4.442;2023-01-28T06:53:43;3.50;99.90
23609;DHT22;11982;50.810;4.442;2023-01-28T06:56:09;3.40;99.90
23609;DHT22;11982;50.810;4.442;2023-01-28T06:58:35;3.40;99.90
23609;DHT22;11982;50.810;4.442;2023-01-28T07:01:01;3.40;99.90
23609;DHT22;11982;50.810;4.442;2023-01-28T07:03:26;3.30;99.90
23609;DHT22;11982;50.810;4.442;2023-01-28T07:05:52;3.30;99.90
23609;DHT22;11982;50.810;4.442;2023-01-28T07:08:18;3.20;99.90
23609;DHT22;11982;50.810;4.442;2023-01-28T07:10:43;3.20;99.90
23609;DHT22;11982;50.810;4.442;2023-01-28T07:13:09;3.20;99.90
23609;DHT22;11982;50.810;4.442;2023-01-28T07:15:35;3.20;99.90
23609;DHT22;11982;50.810;4.442;2023-01-28T07:18:01;3.20;99.90
23609;DHT22;11982;50.810;4.442;2023-01-28T07:20:27;3.20;99.90
23609;DHT22;11982;50.810;4.442;2023-01-28T07:22:52;3.20;99.90
23609;DHT22;11982;50.810;4.442;2023-01-28T07:25:18;3.20;99.90
23609;DHT22;11982;50.810;4.442;2023-01-28T07:27:48;3.00;99.90
23609;DHT22;11982;50.810;4.442;2023-01-28T07:30:15;2.90;99.90
23609;DHT22;11982;50.810;4.442;2023-01-28T07:32:41;3.00;99.90
23609;DHT22;11982;50.810;4.442;2023-01-28T07:35:07;3.00;99.90
23609;DHT22;11982;50.810;4.442;2023-01-28T07:37:33;3.00;99.90
23609;DHT22;11982;50.810;4.442;2023-01-28T07:39:58;3.00;99.90
23609;DHT22;11982;50.810;4.442;2023-01-28T07:42:24;3.00;99.90
23609;DHT22;11982;50.810;4.442;2023-01-28T07:44:50;3.00;99.90
23609;DHT22;11982;50.810;4.442;2023-01-28T07:47:15;3.00;99.90
23609;DHT22;11982;50.810;4.442;2023-01-28T07:49:41;2.90;99.90
23609;DHT22;11982;50.810;4.442;2023-01-28T07:52:07;3.00;99.90
23609;DHT22;11982;50.810;4.442;2023-01-28T07:54:33;3.00;99.90
23609;DHT22;11982;50.810;4.442;2023-01-28T07:56:59;3.00;99.90
23609;DHT22;11982;50.810;4.442;2023-01-28T07:59:25;3.20;99.90
23609;DHT22;11982;50.810;4.442;2023-01-28T08:01:50;3.10;99.90
23609;DHT22;11982;50.810;4.442;2023-01-28T08:04:17;3.20;99.90
23609;DHT22;11982;50.810;4.442;2023-01-28T08:06:43;3.30;99.90
23609;DHT22;11982;50.810;4.442;2023-01-28T08:09:08;3.30;99.90
23609;DHT22;11982;50.810;4.442;2023-01-28T08:11:37;3.20;99.90
23609;DHT22;11982;50.810;4.442;2023-01-28T08:14:03;3.00;99.90
23609;DHT22;11982;50.810;4.442;2023-01-28T08:16:28;3.00;99.90
23609;DHT22;11982;50.810;4.442;2023-01-28T08:18:54;3.00;99.90
23609;DHT22;11982;50.810;4.442;2023-01-28T08:21:20;3.10;99.90
23609;DHT22;11982;50.810;4.442;2023-01-28T08:23:46;3.10;99.90
23609;DHT22;11982;50.810;4.442;2023-01-28T08:26:11;3.10;99.90
23609;DHT22;11982;50.810;4.442;2023-01-28T08:28:37;3.20;99.90
23609;DHT22;11982;50.810;4.442;2023-01-28T08:31:03;3.20;99.90
23609;DHT22;11982;50.810;4.442;2023-01-28T08:33:28;3.10;99.90
23609;DHT22;11982;50.810;4.442;2023-01-28T08:35:54;3.20;99.90
23609;DHT22;11982;50.810;4.442;2023-01-28T08:38:20;3.00;99.90
23609;DHT22;11982;50.810;4.442;2023-01-28T08:40:46;3.10;99.90
23609;DHT22;11982;50.810;4.442;2023-01-28T08:43:15;3.10;99.90
23609;DHT22;11982;50.810;4.442;2023-01-28T08:45:40;3.00;99.90
23609;DHT22;11982;50.810;4.442;2023-01-28T08:48:09;3.10;99.90
23609;DHT22;11982;50.810;4.442;2023-01-28T08:50:37;3.10;99.90
23609;DHT22;11982;50.810;4.442;2023-01-28T08:53:05;3.20;99.90
23609;DHT22;11982;50.810;4.442;2023-01-28T08:55:32;3.20;99.90
23609;DHT22;11982;50.810;4.442;2023-01-28T08:58:01;3.20;99.90
23609;DHT22;11982;50.810;4.442;2023-01-28T09:00:27;3.10;99.90
23609;DHT22;11982;50.810;4.442;2023-01-28T09:02:53;3.00;99.90
23609;DHT22;11982;50.810;4.442;2023-01-28T09:05:20;3.10;99.90
23609;DHT22;11982;50.810;4.442;2023-01-28T09:07:46;3.20;99.90
23609;DHT22;11982;50.810;4.442;2023-01-28T09:10:12;3.10;99.90
23609;DHT22;11982;50.810;4.442;2023-01-28T09:12:38;3.10;99.90
23609;DHT22;11982;50.810;4.442;2023-01-28T09:15:05;3.10;99.90
23609;DHT22;11982;50.810;4.442;2023-01-28T09:17:30;3.10;99.90
23609;DHT22;11982;50.810;4.442;2023-01-28T09:19:56;3.10;99.90
23609;DHT22;11982;50.810;4.442;2023-01-28T09:22:22;3.00;99.90
23609;DHT22;11982;50.810;4.442;2023-01-28T09:24:47;3.10;99.90
23609;DHT22;11982;50.810;4.442;2023-01-28T09:27:13;3.10;99.90
23609;DHT22;11982;50.810;4.442;2023-01-28T09:29:39;3.10;99.90
23609;DHT22;11982;50.810;4.442;2023-01-28T09:32:05;3.20;99.90
23609;DHT22;11982;50.810;4.442;2023-01-28T09:34:34;3.20;99.90
23609;DHT22;11982;50.810;4.442;2023-01-28T09:37:00;3.30;99.90
23609;DHT22;11982;50.810;4.442;2023-01-28T09:39:26;3.30;99.90
23609;DHT22;11982;50.810;4.442;2023-01-28T09:42:24;3.20;99.90
23609;DHT22;11982;50.810;4.442;2023-01-28T09:47:36;3.30;99.90
23609;DHT22;11982;50.810;4.442;2023-01-28T09:50:06;3.10;99.90
23609;DHT22;11982;50.810;4.442;2023-01-28T09:52:38;3.20;99.90
23609;DHT22;11982;50.810;4.442;2023-01-28T09:55:09;3.20;99.90
23609;DHT22;11982;50.810;4.442;2023-01-28T09:57:41;3.20;99.90
23609;DHT22;11982;50.810;4.442;2023-01-28T10:00:29;3.30;99.90
23609;DHT22;11982;50.810;4.442;2023-01-28T10:03:20;3.20;99.90
23609;DHT22;11982;50.810;4.442;2023-01-28T10:19:14;3.30;99.90
23609;DHT22;11982;50.810;4.442;2023-01-28T10:21:51;3.30;99.90
23609;DHT22;11982;50.810;4.442;2023-01-28T10:24:40;3.30;99.90
23609;DHT22;11982;50.810;4.442;2023-01-28T10:27:20;3.20;99.90
23609;DHT22;11982;50.810;4.442;2023-01-28T10:29:47;3.20;99.90
23609;DHT22;11982;50.810;4.442;2023-01-28T10:32:31;3.30;99.90
23609;DHT22;11982;50.810;4.442;2023-01-28T10:35:00;3.50;99.90
23609;DHT22;11982;50.810;4.442;2023-01-28T10:37:30;3.60;99.90
23609;DHT22;11982;50.810;4.442;2023-01-28T10:39:59;3.70;99.90
23609;DHT22;11982;50.810;4.442;2023-01-28T10:44:59;3.70;99.90
23609;DHT22;11982;50.810;4.442;2023-01-28T10:50:21;3.70;99.90
23609;DHT22;11982;50.810;4.442;2023-01-28T10:52:59;3.80;99.90
23609;DHT22;11982;50.810;4.442;2023-01-28T10:55:55;3.90;99.90
23609;DHT22;11982;50.810;4.442;2023-01-28T10:58:27;3.90;99.90
23609;DHT22;11982;50.810;4.442;2023-01-28T11:00:56;3.80;99.90
23609;DHT22;11982;50.810;4.442;2023-01-28T11:03:24;3.60;99.90
23609;DHT22;11982;50.810;4.442;2023-01-28T11:05:55;3.50;99.90
23609;DHT22;11982;50.810;4.442;2023-01-28T11:08:22;3.60;99.90
23609;DHT22;11982;50.810;4.442;2023-01-28T11:10:50;3.70;99.90
23609;DHT22;11982;50.810;4.442;2023-01-28T11:16:05;3.50;99.90
23609;DHT22;11982;50.810;4.442;2023-01-28T11:18:37;3.40;99.90
23609;DHT22;11982;50.810;4.442;2023-01-28T11:21:06;3.40;99.90
23609;DHT22;11982;50.810;4.442;2023-01-28T11:23:47;3.40;99.90
23609;DHT22;11982;50.810;4.442;2023-01-28T11:26:23;3.40;99.90
23609;DHT22;11982;50.810;4.442;2023-01-28T11:28:49;3.20;99.90
23609;DHT22;11982;50.810;4.442;2023-01-28T11:31:16;3.40;99.90
23609;DHT22;11982;50.810;4.442;2023-01-28T11:33:50;3.20;99.90
23609;DHT22;11982;50.810;4.442;2023-01-28T11:36:22;3.20;99.90
23609;DHT22;11982;50.810;4.442;2023-01-28T11:38:53;3.30;99.90
23609;DHT22;11982;50.810;4.442;2023-01-28T11:41:29;3.30;99.90
23609;DHT22;11982;50.810;4.442;2023-01-28T11:43:57;3.30;99.90
23609;DHT22;11982;50.810;4.442;2023-01-28T11:49:20;3.20;99.90
23609;DHT22;11982;50.810;4.442;2023-01-28T11:54:55;3.20;99.90
23609;DHT22;11982;50.810;4.442;2023-01-28T11:57:25;3.40;99.90
23609;DHT22;11982;50.810;4.442;2023-01-28T12:08:08;3.70;99.90
23609;DHT22;11982;50.810;4.442;2023-01-28T12:11:03;3.70;99.90
23609;DHT22;11982;50.810;4.442;2023-01-28T12:16:27;4.00;99.90
23609;DHT22;11982;50.810;4.442;2023-01-28T12:24:18;4.20;99.90
23609;DHT22;11982;50.810;4.442;2023-01-28T12:29:45;4.30;99.90
23609;DHT22;11982;50.810;4.442;2023-01-28T12:32:23;4.30;99.90
23609;DHT22;11982;50.810;4.442;2023-01-28T12:38:43;4.30;99.90
23609;DHT22;11982;50.810;4.442;2023-01-28T12:41:20;4.20;99.90
23609;DHT22;11982;50.810;4.442;2023-01-28T12:44:00;4.60;99.90
23609;DHT22;11982;50.810;4.442;2023-01-28T12:46:53;4.60;99.90
23609;DHT22;11982;50.810;4.442;2023-01-28T12:55:05;4.50;99.90
23609;DHT22;11982;50.810;4.442;2023-01-28T12:57:37;4.50;99.90
23609;DHT22;11982;50.810;4.442;2023-01-28T13:00:26;4.50;99.90
23609;DHT22;11982;50.810;4.442;2023-01-28T13:05:47;4.30;99.90
23609;DHT22;11982;50.810;4.442;2023-01-28T13:08:23;4.40;99.90
23609;DHT22;11982;50.810;4.442;2023-01-28T13:10:50;4.40;99.90
23609;DHT22;11982;50.810;4.442;2023-01-28T13:13:32;4.70;99.90
23609;DHT22;11982;50.810;4.442;2023-01-28T13:16:00;5.00;99.90
23609;DHT22;11982;50.810;4.442;2023-01-28T13:18:47;4.90;99.90
23609;DHT22;11982;50.810;4.442;2023-01-28T13:26:56;4.40;99.90
23609;DHT22;11982;50.810;4.442;2023-01-28T13:31:52;3.90;99.90
23609;DHT22;11982;50.810;4.442;2023-01-28T13:34:57;3.80;99.90
23609;DHT22;11982;50.810;4.442;2023-01-28T13:42:30;3.60;99.90
23609;DHT22;11982;50.810;4.442;2023-01-28T13:47:56;3.60;99.90
23609;DHT22;11982;50.810;4.442;2023-01-28T13:50:24;3.60;99.90
23609;DHT22;11982;50.810;4.442;2023-01-28T13:55:42;3.70;99.90
23609;DHT22;11982;50.810;4.442;2023-01-28T14:06:46;4.30;99.90
23609;DHT22;11982;50.810;4.442;2023-01-28T14:12:33;4.70;99.90
23609;DHT22;11982;50.810;4.442;2023-01-28T14:18:38;4.60;99.90
23609;DHT22;11982;50.810;4.442;2023-01-28T14:21:19;4.70;99.90
23609;DHT22;11982;50.810;4.442;2023-01-28T14:23:51;4.70;99.90
23609;DHT22;11982;50.810;4.442;2023-01-28T14:31:33;4.30;99.90
23609;DHT22;11982;50.810;4.442;2023-01-28T14:34:25;4.30;99.90
23609;DHT22;11982;50.810;4.442;2023-01-28T14:36:59;4.30;99.90
23609;DHT22;11982;50.810;4.442;2023-01-28T14:39:28;4.30;99.90
23609;DHT22;11982;50.810;4.442;2023-01-28T14:41:57;4.20;99.90
23609;DHT22;11982;50.810;4.442;2023-01-28T14:44:34;4.30;99.90
23609;DHT22;11982;50.810;4.442;2023-01-28T14:55:39;4.00;99.90
23609;DHT22;11982;50.810;4.442;2023-01-28T14:58:21;4.10;99.90
23609;DHT22;11982;50.810;4.442;2023-01-28T15:00:55;4.10;99.90
23609;DHT22;11982;50.810;4.442;2023-01-28T15:03:21;4.10;99.90
23609;DHT22;11982;50.810;4.442;2023-01-28T15:05:47;4.20;99.90
23609;DHT22;11982;50.810;4.442;2023-01-28T15:08:22;4.20;99.90
23609;DHT22;11982;50.810;4.442;2023-01-28T15:10:50;4.20;99.90
23609;DHT22;11982;50.810;4.442;2023-01-28T15:13:24;4.20;99.90
23609;DHT22;11982;50.810;4.442;2023-01-28T15:15:52;4.00;99.90
23609;DHT22;11982;50.810;4.442;2023-01-28T15:18:31;3.90;99.90
23609;DHT22;11982;50.810;4.442;2023-01-28T15:20:58;4.00;99.90
23609;DHT22;11982;50.810;4.442;2023-01-28T15:23:28;3.80;99.90
23609;DHT22;11982;50.810;4.442;2023-01-28T15:25:56;3.90;99.90
23609;DHT22;11982;50.810;4.442;2023-01-28T15:28:30;3.90;99.90
23609;DHT22;11982;50.810;4.442;2023-01-28T15:30:56;3.90;99.90
23609;DHT22;11982;50.810;4.442;2023-01-28T15:33:23;3.90;99.90
23609;DHT22;11982;50.810;4.442;2023-01-28T15:35:53;3.80;99.90
23609;DHT22;11982;50.810;4.442;2023-01-28T15:38:20;3.80;99.90
23609;DHT22;11982;50.810;4.442;2023-01-28T15:40:59;3.90;99.90
23609;DHT22;11982;50.810;4.442;2023-01-28T15:43:29;4.00;99.90
23609;DHT22;11982;50.810;4.442;2023-01-28T15:45:57;4.00;99.90
23609;DHT22;11982;50.810;4.442;2023-01-28T15:48:28;3.90;99.90
23609;DHT22;11982;50.810;4.442;2023-01-28T15:51:01;3.80;99.90
23609;DHT22;11982;50.810;4.442;2023-01-28T15:53:32;3.80;99.90
23609;DHT22;11982;50.810;4.442;2023-01-28T15:56:10;3.60;99.90
23609;DHT22;11982;50.810;4.442;2023-01-28T15:58:37;3.50;99.90
23609;DHT22;11982;50.810;4.442;2023-01-28T16:03:35;3.40;99.90
23609;DHT22;11982;50.810;4.442;2023-01-28T16:08:38;3.20;99.90
23609;DHT22;11982;50.810;4.442;2023-01-28T16:11:06;3.20;99.90
23609;DHT22;11982;50.810;4.442;2023-01-28T16:13:32;3.10;99.90
23609;DHT22;11982;50.810;4.442;2023-01-28T16:16:00;3.10;99.90
23609;DHT22;11982;50.810;4.442;2023-01-28T16:18:39;2.90;99.90
23609;DHT22;11982;50.810;4.442;2023-01-28T16:21:10;2.70;99.90
23609;DHT22;11982;50.810;4.442;2023-01-28T16:23:37;2.60;99.90
23609;DHT22;11982;50.810;4.442;2023-01-28T16:26:05;2.60;99.90
23609;DHT22;11982;50.810;4.442;2023-01-28T16:28:31;2.70;99.90
23609;DHT22;11982;50.810;4.442;2023-01-28T16:30:58;2.80;99.90
23609;DHT22;11982;50.810;4.442;2023-01-28T16:33:25;2.80;99.90
23609;DHT22;11982;50.810;4.442;2023-01-28T16:35:51;2.80;99.90
23609;DHT22;11982;50.810;4.442;2023-01-28T16:38:17;2.70;99.90
23609;DHT22;11982;50.810;4.442;2023-01-28T16:40:44;2.60;99.90
23609;DHT22;11982;50.810;4.442;2023-01-28T16:43:12;2.60;99.90
23609;DHT22;11982;50.810;4.442;2023-01-28T16:45:39;2.60;99.90
23609;DHT22;11982;50.810;4.442;2023-01-28T16:48:05;2.70;99.90
23609;DHT22;11982;50.810;4.442;2023-01-28T16:50:31;2.70;99.90
23609;DHT22;11982;50.810;4.442;2023-01-28T16:52:58;2.70;99.90
23609;DHT22;11982;50.810;4.442;2023-01-28T16:55:24;2.80;99.90
23609;DHT22;11982;50.810;4.442;2023-01-28T16:57:55;3.00;99.90
23609;DHT22;11982;50.810;4.442;2023-01-28T17:00:25;3.20;99.90
23609;DHT22;11982;50.810;4.442;2023-01-28T17:02:53;3.30;99.90
23609;DHT22;11982;50.810;4.442;2023-01-28T17:05:20;3.40;99.90
23609;DHT22;11982;50.810;4.442;2023-01-28T17:07:47;3.30;99.90
23609;DHT22;11982;50.810;4.442;2023-01-28T17:10:14;3.30;99.90
23609;DHT22;11982;50.810;4.442;2023-01-28T17:12:41;3.10;99.90
23609;DHT22;11982;50.810;4.442;2023-01-28T17:15:07;3.10;99.90
23609;DHT22;11982;50.810;4.442;2023-01-28T17:17:33;3.10;99.90
23609;DHT22;11982;50.810;4.442;2023-01-28T17:19:59;3.00;99.90
23609;DHT22;11982;50.810;4.442;2023-01-28T17:22:24;3.00;99.90
23609;DHT22;11982;50.810;4.442;2023-01-28T17:24:50;2.90;99.90
23609;DHT22;11982;50.810;4.442;2023-01-28T17:27:16;2.80;99.90
23609;DHT22;11982;50.810;4.442;2023-01-28T17:29:41;2.70;99.90
23609;DHT22;11982;50.810;4.442;2023-01-28T17:32:07;2.50;99.90
23609;DHT22;11982;50.810;4.442;2023-01-28T17:34:33;2.50;99.90
23609;DHT22;11982;50.810;4.442;2023-01-28T17:36:58;2.30;99.90
23609;DHT22;11982;50.810;4.442;2023-01-28T17:39:24;2.30;99.90
23609;DHT22;11982;50.810;4.442;2023-01-28T17:41:50;2.00;99.90
23609;DHT22;11982;50.810;4.442;2023-01-28T17:44:17;1.90;99.90
23609;DHT22;11982;50.810;4.442;2023-01-28T17:46:44;1.70;99.90
23609;DHT22;11982;50.810;4.442;2023-01-28T17:49:11;1.70;99.90
23609;DHT22;11982;50.810;4.442;2023-01-28T17:51:37;1.70;99.90
23609;DHT22;11982;50.810;4.442;2023-01-28T17:54:03;1.70;99.90
23609;DHT22;11982;50.810;4.442;2023-01-28T17:56:30;1.60;99.90
23609;DHT22;11982;50.810;4.442;2023-01-28T17:58:57;1.50;99.90
23609;DHT22;11982;50.810;4.442;2023-01-28T18:01:24;1.40;99.90
23609;DHT22;11982;50.810;4.442;2023-01-28T18:03:50;1.30;99.90
23609;DHT22;11982;50.810;4.442;2023-01-28T18:06:16;1.20;99.90
23609;DHT22;11982;50.810;4.442;2023-01-28T18:08:42;1.10;99.90
23609;DHT22;11982;50.810;4.442;2023-01-28T18:11:10;1.10;99.90
23609;DHT22;11982;50.810;4.442;2023-01-28T18:13:37;1.00;99.90
23609;DHT22;11982;50.810;4.442;2023-01-28T18:16:04;0.90;99.90
23609;DHT22;11982;50.810;4.442;2023-01-28T18:18:31;0.80;99.90
23609;DHT22;11982;50.810;4.442;2023-01-28T18:20:59;0.80;99.90
23609;DHT22;11982;50.810;4.442;2023-01-28T18:23:25;0.60;99.90